sensor_id;sensor_type;location;lat;lon;timestamp;pressure;altitude;pressure_sealevel;temperature;humidity
25510;BME280;13413;52.336;21.200;2022-10-26T00:02:56;100621.95;;;16.20;69.01
25510;BME280;13413;52.336;21.200;2022-10-26T00:10:44;100636.86;;;16.22;68.90
25510;BME280;13413;52.336;21.200;2022-10-26T00:14:04;100635.04;;;16.24;69.02
25510;BME280;13413;52.336;21.200;2022-10-26T00:17:23;100632.08;;;16.28;69.04
25510;BME280;13413;52.336;21.200;2022-10-26T00:20:42;100635.46;;;16.31;69.04
25510;BME280;13413;52.336;21.200;2022-10-26T00:24:02;100639.42;;;16.30;69.14
25510;BME280;13413;52.336;21.200;2022-10-26T00:27:36;100639.38;;;16.31;69.14
25510;BME280;13413;52.336;21.200;2022-10-26T00:31:01;100640.20;;;16.24;69.20
25510;BME280;13413;52.336;21.200;2022-10-26T00:34:21;100636.70;;;16.22;69.44
25510;BME280;13413;52.336;21.200;2022-10-26T00:37:40;100640.48;;;16.25;69.44
25510;BME280;13413;52.336;21.200;2022-10-26T00:41:00;100636.63;;;16.23;69.42
25510;BME280;13413;52.336;21.200;2022-10-26T00:44:57;100640.36;;;16.20;69.55
25510;BME280;13413;52.336;21.200;2022-10-26T00:48:20;100639.45;;;16.19;69.68
25510;BME280;13413;52.336;21.200;2022-10-26T00:51:46;100644.80;;;16.24;69.65
25510;BME280;13413;52.336;21.200;2022-10-26T00:55:22;100642.74;;;16.21;69.68
25510;BME280;13413;52.336;21.200;2022-10-26T00:58:59;100642.88;;;16.21;69.67
25510;BME280;13413;52.336;21.200;2022-10-26T01:02:28;100644.23;;;16.19;69.80
25510;BME280;13413;52.336;21.200;2022-10-26T01:23:29;100640.52;;;16.21;69.83
25510;BME280;13413;52.336;21.200;2022-10-26T01:26:59;100646.38;;;16.22;69.87
25510;BME280;13413;52.336;21.200;2022-10-26T01:30:34;100648.36;;;16.22;69.86
25510;BME280;13413;52.336;21.200;2022-10-26T01:34:01;100645.59;;;16.20;69.95
25510;BME280;13413;52.336;21.200;2022-10-26T01:37:33;100649.04;;;16.26;69.91
25510;BME280;13413;52.336;21.200;2022-10-26T01:41:01;100645.32;;;16.32;69.79
25510;BME280;13413;52.336;21.200;2022-10-26T01:44:37;100648.64;;;16.34;69.74
25510;BME280;13413;52.336;21.200;2022-10-26T01:47:59;100648.48;;;16.26;69.75
25510;BME280;13413;52.336;21.200;2022-10-26T01:51:21;100650.20;;;16.23;69.98
25510;BME280;13413;52.336;21.200;2022-10-26T01:55:05;100655.72;;;16.32;69.98
25510;BME280;13413;52.336;21.200;2022-10-26T01:58:51;100658.44;;;16.29;69.90
25510;BME280;13413;52.336;21.200;2022-10-26T02:02:31;100652.34;;;16.30;70.00
25510;BME280;13413;52.336;21.200;2022-10-26T02:06:04;100649.75;;;16.31;69.97
25510;BME280;13413;52.336;21.200;2022-10-26T02:09:31;100647.52;;;16.33;69.90
25510;BME280;13413;52.336;21.200;2022-10-26T02:13:01;100649.54;;;16.33;69.89
25510;BME280;13413;52.336;21.200;2022-10-26T02:16:25;100650.16;;;16.28;69.83
25510;BME280;13413;52.336;21.200;2022-10-26T02:23:24;100661.77;;;16.19;70.05
25510;BME280;13413;52.336;21.200;2022-10-26T02:26:47;100666.64;;;16.21;70.03
25510;BME280;13413;52.336;21.200;2022-10-26T02:30:18;100665.20;;;16.17;70.18
25510;BME280;13413;52.336;21.200;2022-10-26T02:33:53;100665.44;;;16.22;70.14
25510;BME280;13413;52.336;21.200;2022-10-26T02:37:17;100666.09;;;16.21;70.12
25510;BME280;13413;52.336;21.200;2022-10-26T02:40:39;100668.45;;;16.22;70.16
25510;BME280;13413;52.336;21.200;2022-10-26T02:44:06;100671.11;;;16.23;70.15
25510;BME280;13413;52.336;21.200;2022-10-26T02:47:29;100671.17;;;16.22;70.18
25510;BME280;13413;52.336;21.200;2022-10-26T02:50:56;100673.46;;;16.22;70.22
25510;BME280;13413;52.336;21.200;2022-10-26T02:54:35;100673.75;;;16.22;70.19
25510;BME280;13413;52.336;21.200;2022-10-26T02:58:16;100675.40;;;16.18;70.32
25510;BME280;13413;52.336;21.200;2022-10-26T03:06:00;100677.52;;;16.12;70.40
25510;BME280;13413;52.336;21.200;2022-10-26T03:09:19;100675.96;;;16.09;70.48
25510;BME280;13413;52.336;21.200;2022-10-26T03:12:38;100681.78;;;16.19;70.34
25510;BME280;13413;52.336;21.200;2022-10-26T03:15:57;100686.69;;;16.26;70.26
25510;BME280;13413;52.336;21.200;2022-10-26T03:29:48;100702.67;;;16.29;70.21
25510;BME280;13413;52.336;21.200;2022-10-26T03:33:07;100701.64;;;16.25;70.29
25510;BME280;13413;52.336;21.200;2022-10-26T03:36:27;100698.27;;;16.22;70.36
25510;BME280;13413;52.336;21.200;2022-10-26T03:40:01;100701.27;;;16.22;70.33
25510;BME280;13413;52.336;21.200;2022-10-26T03:43:20;100706.41;;;16.21;70.38
25510;BME280;13413;52.336;21.200;2022-10-26T03:46:39;100707.20;;;16.22;70.49
25510;BME280;13413;52.336;21.200;2022-10-26T03:50:14;100713.34;;;16.29;70.42
25510;BME280;13413;52.336;21.200;2022-10-26T03:53:34;100716.88;;;16.27;70.05
25510;BME280;13413;52.336;21.200;2022-10-26T03:56:54;100717.20;;;16.26;70.09
25510;BME280;13413;52.336;21.200;2022-10-26T04:00:25;100718.07;;;16.25;70.08
25510;BME280;13413;52.336;21.200;2022-10-26T04:03:58;100718.69;;;16.28;70.06
25510;BME280;13413;52.336;21.200;2022-10-26T04:07:18;100717.01;;;16.29;70.12
25510;BME280;13413;52.336;21.200;2022-10-26T04:10:45;100714.70;;;16.31;70.11
25510;BME280;13413;52.336;21.200;2022-10-26T04:14:18;100718.29;;;16.32;69.99
25510;BME280;13413;52.336;21.200;2022-10-26T04:17:45;100723.27;;;16.30;70.00
25510;BME280;13413;52.336;21.200;2022-10-26T04:21:04;100724.13;;;16.34;70.06
25510;BME280;13413;52.336;21.200;2022-10-26T04:24:37;100730.20;;;16.39;70.02
25510;BME280;13413;52.336;21.200;2022-10-26T04:28:11;100732.02;;;16.38;69.87
25510;BME280;13413;52.336;21.200;2022-10-26T04:31:32;100734.35;;;16.31;69.82
25510;BME280;13413;52.336;21.200;2022-10-26T04:35:06;100735.27;;;16.27;69.89
25510;BME280;13413;52.336;21.200;2022-10-26T04:38:25;100736.06;;;16.24;69.66
25510;BME280;13413;52.336;21.200;2022-10-26T04:42:02;100736.43;;;16.24;69.63
25510;BME280;13413;52.336;21.200;2022-10-26T04:45:22;100741.00;;;16.21;69.38
25510;BME280;13413;52.336;21.200;2022-10-26T04:48:42;100747.14;;;16.21;69.28
25510;BME280;13413;52.336;21.200;2022-10-26T04:55:41;100752.04;;;16.20;69.36
25510;BME280;13413;52.336;21.200;2022-10-26T05:05:03;100752.93;;;16.19;69.28
25510;BME280;13413;52.336;21.200;2022-10-26T05:08:23;100753.99;;;16.15;69.35
25510;BME280;13413;52.336;21.200;2022-10-26T05:11:42;100754.89;;;16.15;69.43
25510;BME280;13413;52.336;21.200;2022-10-26T05:15:02;100763.55;;;16.13;69.51
25510;BME280;13413;52.336;21.200;2022-10-26T05:18:37;100773.38;;;16.11;69.37
25510;BME280;13413;52.336;21.200;2022-10-26T05:21:56;100778.16;;;16.10;69.47
25510;BME280;13413;52.336;21.200;2022-10-26T05:25:34;100780.23;;;16.11;69.30
25510;BME280;13413;52.336;21.200;2022-10-26T05:28:54;100783.38;;;16.10;69.35
25510;BME280;13413;52.336;21.200;2022-10-26T05:32:14;100784.36;;;16.11;69.31
25510;BME280;13413;52.336;21.200;2022-10-26T05:35:34;100788.16;;;16.12;69.31
25510;BME280;13413;52.336;21.200;2022-10-26T05:44:56;100795.85;;;16.08;69.26
25510;BME280;13413;52.336;21.200;2022-10-26T05:48:15;100794.45;;;16.07;69.16
25510;BME280;13413;52.336;21.200;2022-10-26T05:51:35;100794.98;;;16.06;69.10
25510;BME280;13413;52.336;21.200;2022-10-26T05:55:10;100794.56;;;16.06;69.09
25510;BME280;13413;52.336;21.200;2022-10-26T05:58:46;100799.48;;;16.10;69.24
25510;BME280;13413;52.336;21.200;2022-10-26T06:02:13;100801.16;;;16.10;69.10
25510;BME280;13413;52.336;21.200;2022-10-26T06:10:39;100810.51;;;16.18;69.22
25510;BME280;13413;52.336;21.200;2022-10-26T06:14:00;100814.42;;;16.22;69.10
25510;BME280;13413;52.336;21.200;2022-10-26T06:17:32;100814.73;;;16.15;68.89
25510;BME280;13413;52.336;21.200;2022-10-26T06:21:14;100819.26;;;16.12;68.94
25510;BME280;13413;52.336;21.200;2022-10-26T06:25:02;100827.39;;;16.09;68.41
25510;BME280;13413;52.336;21.200;2022-10-26T06:28:44;100837.86;;;16.11;68.40
25510;BME280;13413;52.336;21.200;2022-10-26T06:32:09;100831.66;;;16.14;68.33
25510;BME280;13413;52.336;21.200;2022-10-26T06:35:36;100832.39;;;16.12;67.83
25510;BME280;13413;52.336;21.200;2022-10-26T06:39:03;100834.95;;;16.14;67.84
25510;BME280;13413;52.336;21.200;2022-10-26T06:42:25;100839.16;;;16.17;67.77
25510;BME280;13413;52.336;21.200;2022-10-26T06:45:45;100838.77;;;16.24;67.74
25510;BME280;13413;52.336;21.200;2022-10-26T06:49:17;100840.30;;;16.26;67.70
25510;BME280;13413;52.336;21.200;2022-10-26T06:52:53;100840.16;;;16.23;67.71
25510;BME280;13413;52.336;21.200;2022-10-26T06:56:17;100844.38;;;16.24;67.87
25510;BME280;13413;52.336;21.200;2022-10-26T06:59:52;100851.98;;;16.24;67.62
25510;BME280;13413;52.336;21.200;2022-10-26T07:03:25;100843.98;;;16.26;67.58
25510;BME280;13413;52.336;21.200;2022-10-26T07:06:44;100852.02;;;16.24;67.45
25510;BME280;13413;52.336;21.200;2022-10-26T07:10:17;100855.20;;;16.24;67.31
25510;BME280;13413;52.336;21.200;2022-10-26T07:13:51;100860.27;;;16.32;67.29
25510;BME280;13413;52.336;21.200;2022-10-26T07:17:12;100856.81;;;16.36;67.06
25510;BME280;13413;52.336;21.200;2022-10-26T07:20:46;100861.95;;;16.41;66.86
25510;BME280;13413;52.336;21.200;2022-10-26T07:24:06;100859.88;;;16.39;66.96
25510;BME280;13413;52.336;21.200;2022-10-26T07:27:27;100859.48;;;16.44;66.79
25510;BME280;13413;52.336;21.200;2022-10-26T07:30:46;100859.70;;;16.50;66.88
25510;BME280;13413;52.336;21.200;2022-10-26T07:34:06;100863.48;;;16.56;66.83
25510;BME280;13413;52.336;21.200;2022-10-26T07:37:26;100866.36;;;16.57;66.70
25510;BME280;13413;52.336;21.200;2022-10-26T07:54:34;100880.09;;;16.45;66.13
25510;BME280;13413;52.336;21.200;2022-10-26T07:57:54;100877.23;;;16.52;66.32
25510;BME280;13413;52.336;21.200;2022-10-26T08:01:15;100876.26;;;16.61;66.24
25510;BME280;13413;52.336;21.200;2022-10-26T08:04:35;100883.44;;;16.64;66.21
25510;BME280;13413;52.336;21.200;2022-10-26T08:15:10;100893.34;;;16.76;65.64
25510;BME280;13413;52.336;21.200;2022-10-26T08:18:31;100893.63;;;16.82;65.70
25510;BME280;13413;52.336;21.200;2022-10-26T08:21:50;100897.05;;;16.87;65.77
25510;BME280;13413;52.336;21.200;2022-10-26T08:34:27;100892.31;;;16.93;65.35
25510;BME280;13413;52.336;21.200;2022-10-26T08:38:01;100894.69;;;17.07;64.81
25510;BME280;13413;52.336;21.200;2022-10-26T08:41:26;100902.88;;;16.97;64.45
25510;BME280;13413;52.336;21.200;2022-10-26T08:45:14;100905.52;;;16.89;64.72
25510;BME280;13413;52.336;21.200;2022-10-26T08:48:51;100910.20;;;16.84;64.90
25510;BME280;13413;52.336;21.200;2022-10-26T08:52:16;100914.23;;;16.84;64.60
25510;BME280;13413;52.336;21.200;2022-10-26T08:55:48;100914.45;;;16.89;64.87
25510;BME280;13413;52.336;21.200;2022-10-26T08:59:16;100915.02;;;16.93;64.84
25510;BME280;13413;52.336;21.200;2022-10-26T09:02:53;100923.61;;;16.93;64.78
25510;BME280;13413;52.336;21.200;2022-10-26T09:06:22;100928.64;;;16.90;64.52
25510;BME280;13413;52.336;21.200;2022-10-26T09:09:58;100932.21;;;16.90;64.54
25510;BME280;13413;52.336;21.200;2022-10-26T09:13:28;100936.65;;;16.84;64.59
25510;BME280;13413;52.336;21.200;2022-10-26T09:20:50;100957.89;;;16.62;64.31
25510;BME280;13413;52.336;21.200;2022-10-26T09:24:29;100958.48;;;16.53;64.57
25510;BME280;13413;52.336;21.200;2022-10-26T09:27:53;100960.70;;;16.43;64.57
25510;BME280;13413;52.336;21.200;2022-10-26T09:31:15;100959.14;;;16.37;64.89
25510;BME280;13413;52.336;21.200;2022-10-26T09:34:53;100967.61;;;16.26;64.96
25510;BME280;13413;52.336;21.200;2022-10-26T09:38:18;100975.91;;;16.22;65.17
25510;BME280;13413;52.336;21.200;2022-10-26T09:41:50;100984.42;;;16.20;65.27
25510;BME280;13413;52.336;21.200;2022-10-26T09:45:34;100988.27;;;16.23;65.33
25510;BME280;13413;52.336;21.200;2022-10-26T09:48:57;100997.22;;;16.17;65.18
25510;BME280;13413;52.336;21.200;2022-10-26T09:52:18;100998.73;;;16.10;65.16
25510;BME280;13413;52.336;21.200;2022-10-26T09:55:42;100999.36;;;16.07;65.42
25510;BME280;13413;52.336;21.200;2022-10-26T10:09:24;100997.06;;;16.27;65.07
25510;BME280;13413;52.336;21.200;2022-10-26T10:12:51;101006.38;;;16.34;65.30
25510;BME280;13413;52.336;21.200;2022-10-26T10:16:12;101008.45;;;16.29;64.98
25510;BME280;13413;52.336;21.200;2022-10-26T10:19:49;101008.53;;;16.30;65.26
25510;BME280;13413;52.336;21.200;2022-10-26T10:23:28;101005.26;;;16.33;65.28
25510;BME280;13413;52.336;21.200;2022-10-26T10:26:56;101003.98;;;16.36;65.15
25510;BME280;13413;52.336;21.200;2022-10-26T10:30:29;100997.77;;;16.27;65.16
25510;BME280;13413;52.336;21.200;2022-10-26T10:44:25;100997.45;;;16.45;65.37
25510;BME280;13413;52.336;21.200;2022-10-26T10:48:04;100996.08;;;16.50;65.46
25510;BME280;13413;52.336;21.200;2022-10-26T10:51:25;100990.34;;;16.57;65.53
25510;BME280;13413;52.336;21.200;2022-10-26T10:54:57;100990.17;;;16.65;65.46
25510;BME280;13413;52.336;21.200;2022-10-26T10:58:41;100993.92;;;16.64;65.22
25510;BME280;13413;52.336;21.200;2022-10-26T11:06:14;100995.92;;;16.59;65.42
25510;BME280;13413;52.336;21.200;2022-10-26T11:09:43;100995.50;;;16.68;65.52
25510;BME280;13413;52.336;21.200;2022-10-26T11:13:11;100991.65;;;16.77;65.45
25510;BME280;13413;52.336;21.200;2022-10-26T11:16:37;100993.95;;;16.79;65.11
25510;BME280;13413;52.336;21.200;2022-10-26T11:20:02;100994.09;;;16.68;65.18
25510;BME280;13413;52.336;21.200;2022-10-26T11:23:39;100996.43;;;16.73;65.25
25510;BME280;13413;52.336;21.200;2022-10-26T11:27:04;101001.59;;;16.76;65.34
25510;BME280;13413;52.336;21.200;2022-10-26T11:30:31;101004.30;;;16.83;65.23
25510;BME280;13413;52.336;21.200;2022-10-26T11:34:04;101004.80;;;16.87;65.32
25510;BME280;13413;52.336;21.200;2022-10-26T11:37:35;101007.36;;;16.96;65.16
25510;BME280;13413;52.336;21.200;2022-10-26T11:41:02;101006.16;;;16.98;64.95
25510;BME280;13413;52.336;21.200;2022-10-26T11:44:41;101005.29;;;16.93;64.86
25510;BME280;13413;52.336;21.200;2022-10-26T11:48:05;101007.77;;;16.94;64.92
25510;BME280;13413;52.336;21.200;2022-10-26T11:51:39;101007.43;;;16.93;64.86
25510;BME280;13413;52.336;21.200;2022-10-26T11:55:13;101008.96;;;16.96;65.00
25510;BME280;13413;52.336;21.200;2022-10-26T11:58:46;101011.78;;;17.01;64.89
25510;BME280;13413;52.336;21.200;2022-10-26T12:02:16;101010.77;;;17.08;64.89
25510;BME280;13413;52.336;21.200;2022-10-26T12:05:48;101010.45;;;17.08;64.66
25510;BME280;13413;52.336;21.200;2022-10-26T12:09:09;101008.27;;;17.10;64.73
25510;BME280;13413;52.336;21.200;2022-10-26T12:12:37;101014.58;;;17.09;64.60
25510;BME280;13413;52.336;21.200;2022-10-26T12:16:06;101020.99;;;17.05;64.66
25510;BME280;13413;52.336;21.200;2022-10-26T12:19:47;101022.84;;;17.03;64.71
25510;BME280;13413;52.336;21.200;2022-10-26T12:23:22;101023.33;;;17.07;64.61
25510;BME280;13413;52.336;21.200;2022-10-26T12:26:51;101021.59;;;17.10;64.70
25510;BME280;13413;52.336;21.200;2022-10-26T12:30:29;101019.96;;;17.18;64.62
25510;BME280;13413;52.336;21.200;2022-10-26T12:34:04;101023.08;;;17.24;64.47
25510;BME280;13413;52.336;21.200;2022-10-26T12:37:35;101023.48;;;17.19;64.47
25510;BME280;13413;52.336;21.200;2022-10-26T12:54:33;101025.81;;;17.51;64.00
25510;BME280;13413;52.336;21.200;2022-10-26T13:02:32;101020.81;;;17.52;64.10
25510;BME280;13413;52.336;21.200;2022-10-26T13:06:18;101026.60;;;17.53;64.10
25510;BME280;13413;52.336;21.200;2022-10-26T13:10:02;101026.42;;;17.51;64.12
25510;BME280;13413;52.336;21.200;2022-10-26T13:13:24;101024.45;;;17.52;64.32
25510;BME280;13413;52.336;21.200;2022-10-26T13:16:46;101022.14;;;17.60;64.22
25510;BME280;13413;52.336;21.200;2022-10-26T13:24:58;101020.55;;;17.46;63.89
25510;BME280;13413;52.336;21.200;2022-10-26T13:28:42;101024.18;;;17.42;64.18
25510;BME280;13413;52.336;21.200;2022-10-26T13:32:02;101024.30;;;17.46;64.12
25510;BME280;13413;52.336;21.200;2022-10-26T13:35:23;101025.50;;;17.35;63.93
25510;BME280;13413;52.336;21.200;2022-10-26T13:38:45;101034.02;;;17.35;63.95
25510;BME280;13413;52.336;21.200;2022-10-26T13:42:06;101028.79;;;17.32;63.81
25510;BME280;13413;52.336;21.200;2022-10-26T13:45:45;101032.82;;;17.25;63.66
25510;BME280;13413;52.336;21.200;2022-10-26T13:49:23;101034.00;;;17.24;63.80
25510;BME280;13413;52.336;21.200;2022-10-26T13:52:44;101039.21;;;17.28;63.75
25510;BME280;13413;52.336;21.200;2022-10-26T13:56:08;101039.58;;;17.30;63.72
25510;BME280;13413;52.336;21.200;2022-10-26T13:59:45;101033.23;;;17.28;63.62
25510;BME280;13413;52.336;21.200;2022-10-26T14:03:16;101035.83;;;17.25;63.50
25510;BME280;13413;52.336;21.200;2022-10-26T14:06:38;101032.50;;;17.17;63.43
25510;BME280;13413;52.336;21.200;2022-10-26T14:10:26;101035.95;;;17.12;63.55
25510;BME280;13413;52.336;21.200;2022-10-26T14:14:01;101033.48;;;17.17;63.48
25510;BME280;13413;52.336;21.200;2022-10-26T14:17:25;101028.93;;;17.14;63.42
25510;BME280;13413;52.336;21.200;2022-10-26T14:20:48;101030.16;;;17.08;63.43
25510;BME280;13413;52.336;21.200;2022-10-26T14:24:25;101029.60;;;17.03;63.50
25510;BME280;13413;52.336;21.200;2022-10-26T14:28:02;101033.36;;;17.03;63.56
25510;BME280;13413;52.336;21.200;2022-10-26T14:40:25;101039.33;;;16.88;63.50
25510;BME280;13413;52.336;21.200;2022-10-26T14:43:46;101041.30;;;16.88;63.40
25510;BME280;13413;52.336;21.200;2022-10-26T14:47:13;101038.19;;;16.84;63.43
25510;BME280;13413;52.336;21.200;2022-10-26T14:50:37;101041.85;;;16.80;63.48
25510;BME280;13413;52.336;21.200;2022-10-26T14:54:20;101046.23;;;16.78;63.50
25510;BME280;13413;52.336;21.200;2022-10-26T14:57:49;101051.61;;;16.71;63.52
25510;BME280;13413;52.336;21.200;2022-10-26T15:01:28;101049.15;;;16.67;63.53
25510;BME280;13413;52.336;21.200;2022-10-26T15:05:00;101056.69;;;16.56;63.54
25510;BME280;13413;52.336;21.200;2022-10-26T15:08:41;101057.55;;;16.49;63.63
25510;BME280;13413;52.336;21.200;2022-10-26T15:15:44;101065.76;;;16.44;63.59
25510;BME280;13413;52.336;21.200;2022-10-26T15:19:08;101066.16;;;16.43;63.64
25510;BME280;13413;52.336;21.200;2022-10-26T15:22:28;101072.64;;;16.43;63.59
25510;BME280;13413;52.336;21.200;2022-10-26T15:25:53;101075.52;;;16.42;63.62
25510;BME280;13413;52.336;21.200;2022-10-26T15:29:39;101075.06;;;16.36;63.47
25510;BME280;13413;52.336;21.200;2022-10-26T15:33:16;101075.23;;;16.19;63.63
25510;BME280;13413;52.336;21.200;2022-10-26T15:36:36;101075.44;;;16.10;63.91
25510;BME280;13413;52.336;21.200;2022-10-26T15:40:12;101078.56;;;16.15;64.02
25510;BME280;13413;52.336;21.200;2022-10-26T15:43:47;101083.09;;;16.18;63.97
25510;BME280;13413;52.336;21.200;2022-10-26T15:47:17;101089.45;;;16.21;63.83
25510;BME280;13413;52.336;21.200;2022-10-26T15:50:44;101093.54;;;16.22;63.81
25510;BME280;13413;52.336;21.200;2022-10-26T15:54:17;101100.89;;;16.20;63.85
25510;BME280;13413;52.336;21.200;2022-10-26T15:57:43;101094.59;;;16.16;63.71
25510;BME280;13413;52.336;21.200;2022-10-26T16:01:14;101095.10;;;16.13;63.77
25510;BME280;13413;52.336;21.200;2022-10-26T16:04:42;101094.98;;;16.12;63.76
25510;BME280;13413;52.336;21.200;2022-10-26T16:08:30;101097.59;;;15.89;63.88
25510;BME280;13413;52.336;21.200;2022-10-26T16:11:51;101091.77;;;15.71;64.17
25510;BME280;13413;52.336;21.200;2022-10-26T16:24:23;101109.62;;;15.71;64.23
25510;BME280;13413;52.336;21.200;2022-10-26T16:27:57;101114.95;;;15.73;64.34
25510;BME280;13413;52.336;21.200;2022-10-26T16:31:38;101115.02;;;15.62;64.19
25510;BME280;13413;52.336;21.200;2022-10-26T16:35:12;101124.98;;;15.42;64.36
25510;BME280;13413;52.336;21.200;2022-10-26T16:38:33;101123.29;;;15.30;64.63
25510;BME280;13413;52.336;21.200;2022-10-26T16:41:52;101117.94;;;15.33;64.54
25510;BME280;13413;52.336;21.200;2022-10-26T16:45:17;101118.64;;;15.30;64.51
25510;BME280;13413;52.336;21.200;2022-10-26T16:59:09;101119.36;;;15.13;64.14
25510;BME280;13413;52.336;21.200;2022-10-26T17:02:37;101120.00;;;15.05;64.03
25510;BME280;13413;52.336;21.200;2022-10-26T17:06:00;101120.91;;;15.01;64.08
25510;BME280;13413;52.336;21.200;2022-10-26T17:09:21;101123.79;;;14.99;64.07
25510;BME280;13413;52.336;21.200;2022-10-26T17:19:43;101131.77;;;14.81;64.10
25510;BME280;13413;52.336;21.200;2022-10-26T17:23:03;101135.39;;;14.76;64.10
25510;BME280;13413;52.336;21.200;2022-10-26T17:26:23;101136.05;;;14.69;64.12
25510;BME280;13413;52.336;21.200;2022-10-26T17:29:44;101135.21;;;14.66;64.07
25510;BME280;13413;52.336;21.200;2022-10-26T17:33:16;101136.39;;;14.47;63.96
25510;BME280;13413;52.336;21.200;2022-10-26T17:36:35;101133.73;;;14.21;64.10
25510;BME280;13413;52.336;21.200;2022-10-26T17:40:10;101132.97;;;14.08;64.41
25510;BME280;13413;52.336;21.200;2022-10-26T17:43:44;101134.28;;;14.03;64.60
25510;BME280;13413;52.336;21.200;2022-10-26T17:47:03;101142.42;;;14.07;64.54
25510;BME280;13413;52.336;21.200;2022-10-26T18:04:05;101151.02;;;13.94;64.21
25510;BME280;13413;52.336;21.200;2022-10-26T18:07:33;101155.56;;;13.93;64.12
25510;BME280;13413;52.336;21.200;2022-10-26T18:10:53;101160.27;;;13.83;63.92
25510;BME280;13413;52.336;21.200;2022-10-26T18:15:46;101164.81;;;13.81;64.17
25510;BME280;13413;52.336;21.200;2022-10-26T18:19:06;101173.87;;;13.78;64.16
25510;BME280;13413;52.336;21.200;2022-10-26T18:22:25;101175.98;;;13.75;64.02
25510;BME280;13413;52.336;21.200;2022-10-26T18:25:45;101178.84;;;13.75;64.07
25510;BME280;13413;52.336;21.200;2022-10-26T18:29:05;101180.70;;;13.73;63.88
25510;BME280;13413;52.336;21.200;2022-10-26T18:32:38;101183.44;;;13.68;64.09
25510;BME280;13413;52.336;21.200;2022-10-26T18:36:02;101189.70;;;13.64;64.00
25510;BME280;13413;52.336;21.200;2022-10-26T18:40:56;101190.77;;;13.47;63.91
25510;BME280;13413;52.336;21.200;2022-10-26T18:44:17;101196.87;;;13.39;64.00
25510;BME280;13413;52.336;21.200;2022-10-26T18:47:36;101208.30;;;13.36;63.98
25510;BME280;13413;52.336;21.200;2022-10-26T18:50:56;101212.19;;;13.30;63.91
25510;BME280;13413;52.336;21.200;2022-10-26T18:54:20;101210.11;;;13.22;63.80
25510;BME280;13413;52.336;21.200;2022-10-26T18:57:40;101210.98;;;13.15;63.85
25510;BME280;13413;52.336;21.200;2022-10-26T19:01:08;101215.85;;;13.07;63.92
25510;BME280;13413;52.336;21.200;2022-10-26T19:04:42;101220.86;;;13.10;63.97
25510;BME280;13413;52.336;21.200;2022-10-26T19:08:15;101220.80;;;13.09;64.01
25510;BME280;13413;52.336;21.200;2022-10-26T19:11:34;101219.99;;;13.07;63.90
25510;BME280;13413;52.336;21.200;2022-10-26T19:15:09;101223.88;;;13.02;63.90
25510;BME280;13413;52.336;21.200;2022-10-26T19:18:29;101222.55;;;12.95;63.82
25510;BME280;13413;52.336;21.200;2022-10-26T19:21:52;101226.21;;;12.92;63.85
25510;BME280;13413;52.336;21.200;2022-10-26T19:25:13;101229.52;;;12.90;63.77
25510;BME280;13413;52.336;21.200;2022-10-26T19:29:59;101237.48;;;12.79;63.63
25510;BME280;13413;52.336;21.200;2022-10-26T19:33:18;101242.75;;;12.71;63.67
25510;BME280;13413;52.336;21.200;2022-10-26T19:36:38;101243.35;;;12.72;63.95
25510;BME280;13413;52.336;21.200;2022-10-26T19:40:12;101245.20;;;12.70;63.90
25510;BME280;13413;52.336;21.200;2022-10-26T19:43:33;101253.86;;;12.72;63.80
25510;BME280;13413;52.336;21.200;2022-10-26T19:47:07;101255.78;;;12.63;63.61
25510;BME280;13413;52.336;21.200;2022-10-26T19:50:33;101256.10;;;12.60;63.73
25510;BME280;13413;52.336;21.200;2022-10-26T19:53:52;101255.39;;;12.55;63.72
25510;BME280;13413;52.336;21.200;2022-10-26T19:57:26;101260.51;;;12.53;63.91
25510;BME280;13413;52.336;21.200;2022-10-26T20:00:53;101270.88;;;12.56;63.85
25510;BME280;13413;52.336;21.200;2022-10-26T20:04:26;101267.96;;;12.58;63.92
25510;BME280;13413;52.336;21.200;2022-10-26T20:07:51;101274.45;;;12.54;63.83
25510;BME280;13413;52.336;21.200;2022-10-26T20:11:11;101269.52;;;12.44;63.96
25510;BME280;13413;52.336;21.200;2022-10-26T20:14:31;101271.31;;;12.37;64.20
25510;BME280;13413;52.336;21.200;2022-10-26T20:17:49;101274.71;;;12.35;64.35
25510;BME280;13413;52.336;21.200;2022-10-26T20:21:10;101272.85;;;12.36;64.36
25510;BME280;13413;52.336;21.200;2022-10-26T20:34:05;101274.29;;;12.44;64.70
25510;BME280;13413;52.336;21.200;2022-10-26T20:37:32;101273.55;;;12.46;64.57
25510;BME280;13413;52.336;21.200;2022-10-26T20:40:54;101275.78;;;12.47;64.48
25510;BME280;13413;52.336;21.200;2022-10-26T20:44:29;101272.50;;;12.46;64.37
25510;BME280;13413;52.336;21.200;2022-10-26T20:47:50;101277.50;;;12.41;64.33
25510;BME280;13413;52.336;21.200;2022-10-26T20:51:16;101280.67;;;12.41;64.35
25510;BME280;13413;52.336;21.200;2022-10-26T20:54:54;101283.92;;;12.39;64.33
25510;BME280;13413;52.336;21.200;2022-10-26T20:58:49;101287.85;;;12.39;64.51
25510;BME280;13413;52.336;21.200;2022-10-26T21:02:09;101286.79;;;12.45;64.52
25510;BME280;13413;52.336;21.200;2022-10-26T21:05:35;101285.98;;;12.46;64.47
25510;BME280;13413;52.336;21.200;2022-10-26T21:09:22;101291.64;;;12.38;64.01
25510;BME280;13413;52.336;21.200;2022-10-26T21:19:32;101300.40;;;12.04;64.36
25510;BME280;13413;52.336;21.200;2022-10-26T21:22:52;101301.75;;;12.07;64.26
25510;BME280;13413;52.336;21.200;2022-10-26T21:29:59;101296.77;;;11.85;64.34
25510;BME280;13413;52.336;21.200;2022-10-26T21:33:30;101303.85;;;11.92;64.29